Time;durP1;ratioP1;P1;durP2;ratioP2;P2;SDS_P1;SDS_P2;PMS_P1;PMS_P2;Temp;Humidity;BMP_temperature;BMP_pressure;BME280_temperature;BME280_humidity;BME280_pressure;Samples;Min_cycle;Max_cycle;Signal;HPM_P1;HPM_P2
2022/11/06 00:02:06;;;;;;;0.40;0.40;;;;;;;9.98;80.86;99873.88;4966176;29;20543;-71
2022/11/06 00:04:31;;;;;;;0.40;0.40;;;;;;;9.99;80.70;99875.56;4965878;28;20039;-71
2022/11/06 00:06:56;;;;;;;0.50;0.50;;;;;;;9.96;80.53;99867.84;4965766;29;20459;-70
2022/11/06 00:09:22;;;;;;;7.63;4.45;;;;;;;9.96;80.52;99860.91;4965908;29;20034;-70
2022/11/06 00:11:49;;;;;;;0.43;0.43;;;;;;;9.98;80.26;99863.50;4965805;29;20126;-70
2022/11/06 00:14:15;;;;;;;0.50;0.50;;;;;;;9.99;80.18;99865.19;4949991;29;20027;-71
2022/11/06 00:16:41;;;;;;;0.40;0.40;;;;;;;10.01;79.87;99863.44;4949616;29;20414;-70
2022/11/06 00:19:07;;;;;;;0.40;0.40;;;;;;;10.00;80.05;99864.34;4965472;29;20117;-70
2022/11/06 00:21:33;;;;;;;0.40;0.40;;;;;;;10.05;79.83;99862.50;4966033;29;20050;-71
2022/11/06 00:24:00;;;;;;;0.50;0.50;;;;;;;10.03;79.70;99862.53;4979571;28;20034;-69
2022/11/06 00:26:27;;;;;;;0.40;0.40;;;;;;;10.05;79.55;99862.50;4987064;28;20158;-71
2022/11/06 00:28:54;;;;;;;0.40;0.40;;;;;;;10.04;79.52;99859.06;4987130;28;20030;-70
2022/11/06 00:31:22;;;;;;;0.40;0.40;;;;;;;10.04;79.57;99853.03;4987250;28;20063;-70
2022/11/06 00:33:48;;;;;;;0.50;0.50;;;;;;;10.04;79.83;99851.31;4987090;28;20078;-70
2022/11/06 00:36:16;;;;;;;0.40;0.40;;;;;;;10.11;79.56;99856.38;4986979;28;20034;-69
2022/11/06 00:38:42;;;;;;;0.40;0.40;;;;;;;10.10;79.36;99850.34;4987174;28;20031;-70
2022/11/06 00:41:13;;;;;;;0.40;0.40;;;;;;;10.10;79.66;99849.47;4986914;28;20037;-70
2022/11/06 00:43:38;;;;;;;0.50;0.50;;;;;;;10.15;79.47;99847.66;4987097;28;20034;-70
2022/11/06 00:46:09;;;;;;;0.43;0.43;;;;;;;10.16;79.42;99839.84;4986499;28;20042;-70
2022/11/06 00:48:35;;;;;;;0.40;0.40;;;;;;;10.14;79.57;99840.78;4986649;28;20026;-73
2022/11/06 00:51:21;;;;;;;0.40;0.40;;;;;;;10.13;79.65;99836.44;4986316;28;20019;-72
2022/11/06 00:53:47;;;;;;;1.58;1.48;;;;;;;10.14;79.61;99831.25;4986789;28;20038;-71
2022/11/06 00:56:17;;;;;;;0.50;0.50;;;;;;;10.10;79.56;99818.34;4986684;28;20033;-70
2022/11/06 00:58:44;;;;;;;0.40;0.40;;;;;;;10.15;79.20;99830.38;4986809;28;20023;-69
2022/11/06 01:01:18;;;;;;;0.40;0.40;;;;;;;10.12;79.36;99822.66;4986739;28;20029;-70
2022/11/06 01:03:45;;;;;;;16.65;5.18;;;;;;;10.17;79.31;99826.00;4986987;28;20081;-71
2022/11/06 01:06:14;;;;;;;0.50;0.50;;;;;;;10.16;79.54;99839.84;4986363;28;20034;-72
2022/11/06 01:08:40;;;;;;;0.40;0.40;;;;;;;10.16;79.30;99829.47;4986574;28;20050;-71
2022/11/06 01:11:12;;;;;;;0.40;0.40;;;;;;;10.16;79.42;99837.25;4986631;28;20026;-71
2022/11/06 01:13:37;;;;;;;1.83;1.73;;;;;;;10.16;79.51;99828.63;4986606;28;20058;-72
2022/11/06 01:16:06;;;;;;;0.95;0.90;;;;;;;10.23;79.56;99839.75;4986434;28;20031;-73
2022/11/06 01:18:31;;;;;;;0.50;0.50;;;;;;;10.22;79.58;99828.53;4986459;28;20030;-72
2022/11/06 01:20:56;;;;;;;0.43;0.43;;;;;;;10.24;79.70;99831.94;4968711;28;20125;-72
2022/11/06 01:23:22;;;;;;;0.80;0.80;;;;;;;10.14;79.84;99820.03;4986439;28;20037;-71
2022/11/06 01:26:02;;;;;;;0.40;0.40;;;;;;;10.24;79.82;99831.13;4986256;28;20046;-71
2022/11/06 01:28:28;;;;;;;0.40;0.40;;;;;;;10.24;79.71;99820.75;4986147;28;20430;-71
2022/11/06 01:30:54;;;;;;;0.40;0.40;;;;;;;10.26;79.60;99806.84;4986129;28;20030;-72
2022/11/06 01:33:20;;;;;;;0.43;0.43;;;;;;;10.25;79.86;99815.53;4985046;28;20027;-71
2022/11/06 01:35:47;;;;;;;0.40;0.40;;;;;;;10.25;79.75;99815.53;4986216;28;20474;-72
2022/11/06 01:38:13;;;;;;;0.40;0.40;;;;;;;10.25;79.75;99805.16;4989639;28;20026;-71
2022/11/06 01:40:40;;;;;;;0.40;0.40;;;;;;;10.33;79.36;99804.16;4990271;28;20061;-71
2022/11/06 01:43:13;;;;;;;0.40;0.40;;;;;;;10.31;79.31;99800.72;4990358;28;20095;-72
2022/11/06 01:45:40;;;;;;;0.50;0.50;;;;;;;10.30;79.26;99792.09;4990165;28;20082;-72
2022/11/06 01:48:05;;;;;;;0.50;0.50;;;;;;;10.35;79.41;99792.00;4989800;28;20059;-72
2022/11/06 01:50:31;;;;;;;0.40;0.40;;;;;;;10.37;79.29;99782.44;4989968;28;20053;-71
2022/11/06 01:52:59;;;;;;;0.40;0.40;;;;;;;10.35;79.36;99785.06;4990080;28;20023;-72
2022/11/06 01:55:29;;;;;;;0.40;0.40;;;;;;;10.34;79.74;99783.38;4989905;28;20163;-72
2022/11/06 01:57:56;;;;;;;0.40;0.40;;;;;;;10.35;80.09;99781.63;4990284;28;20069;-72
2022/11/06 02:00:22;;;;;;;0.40;0.40;;;;;;;10.34;80.06;99775.56;4989725;28;20057;-73
2022/11/06 02:02:49;;;;;;;0.40;0.40;;;;;;;10.40;80.43;99772.00;4990003;28;20062;-71
2022/11/06 02:05:16;;;;;;;2.92;2.72;;;;;;;10.40;80.51;99770.28;4989711;28;20085;-72
2022/11/06 02:07:42;;;;;;;0.50;0.50;;;;;;;10.41;80.14;99771.97;4989695;28;20038;-71
2022/11/06 02:10:08;;;;;;;0.40;0.40;;;;;;;10.35;80.81;99756.53;4989742;28;20030;-72
2022/11/06 02:12:39;;;;;;;0.40;0.40;;;;;;;10.45;80.71;99756.38;4989853;28;20138;-73
2022/11/06 02:15:15;;;;;;;0.50;0.50;;;;;;;10.43;80.85;99759.00;4989736;28;20046;-72
2022/11/06 02:18:05;;;;;;;0.40;0.40;;;;;;;10.47;81.30;99754.63;4989418;28;20019;-75
2022/11/06 02:20:45;;;;;;;0.40;0.40;;;;;;;10.44;81.52;99747.72;4988933;28;20042;-71
2022/11/06 02:23:29;;;;;;;0.43;0.43;;;;;;;10.44;81.48;99750.31;4989454;28;20025;-71
2022/11/06 02:26:06;;;;;;;0.47;0.47;;;;;;;10.47;81.72;99746.84;4989349;28;20035;-72
2022/11/06 02:28:38;;;;;;;0.40;0.40;;;;;;;10.45;81.81;99740.81;4989460;28;20423;-72
2022/11/06 02:31:11;;;;;;;;;;;;;;;10.45;82.49;99740.81;4989660;28;20026;-72
2022/11/06 02:33:47;;;;;;;0.50;0.50;;;;;;;10.36;82.74;99740.09;4972031;28;20000;-71
2022/11/06 02:36:22;;;;;;;0.40;0.40;;;;;;;10.39;82.68;99742.63;4989140;28;20030;-74
2022/11/06 02:38:53;;;;;;;0.50;0.50;;;;;;;10.33;83.09;99724.59;4989237;28;20022;-72
2022/11/06 02:41:23;;;;;;;0.50;0.50;;;;;;;10.31;83.54;99722.88;4989282;28;20026;-71
2022/11/06 02:43:53;;;;;;;0.40;0.40;;;;;;;10.28;83.81;99731.59;4989082;28;20117;-73
2022/11/06 02:46:35;;;;;;;2.35;2.15;;;;;;;10.26;84.38;99730.75;4988928;28;20037;-73
2022/11/06 02:49:08;;;;;;;0.50;0.50;;;;;;;10.16;84.24;99720.53;4987303;28;20027;-72
2022/11/06 02:51:39;;;;;;;0.40;0.40;;;;;;;10.04;85.13;99720.75;4987841;28;20034;-73
2022/11/06 02:54:06;;;;;;;0.40;0.40;;;;;;;10.01;85.54;99719.09;4971704;28;20027;-72
2022/11/06 02:56:39;;;;;;;0.50;0.50;;;;;;;9.93;85.93;99715.75;4989031;28;20023;-72
2022/11/06 02:59:10;;;;;;;0.40;0.40;;;;;;;9.89;86.02;99708.91;4988925;28;20394;-72
2022/11/06 03:01:41;;;;;;;0.50;0.50;;;;;;;9.85;85.96;99708.13;4989159;28;20022;-73
2022/11/06 03:04:18;;;;;;;0.40;0.40;;;;;;;9.79;86.87;99701.28;4988675;28;20042;-72
2022/11/06 03:07:10;;;;;;;0.40;0.40;;;;;;;9.79;87.17;99705.63;4988822;28;20110;-72
2022/11/06 03:09:36;;;;;;;0.50;0.50;;;;;;;9.78;87.15;99707.34;4981865;28;20095;-72
2022/11/06 03:12:27;;;;;;;0.40;0.40;;;;;;;9.80;87.40;99702.16;4988761;28;20030;-72
2022/11/06 03:15:02;;;;;;;0.40;0.40;;;;;;;9.75;88.27;99691.00;4988520;28;20026;-72
2022/11/06 03:17:45;;;;;;;2.97;2.78;;;;;;;9.75;88.96;99693.59;4988621;28;20058;-73
2022/11/06 03:20:21;;;;;;;0.40;0.40;;;;;;;9.74;88.96;99692.75;4988048;28;20106;-72
2022/11/06 03:22:54;;;;;;;0.57;0.57;;;;;;;9.71;88.94;99686.75;4988462;28;20034;-72
2022/11/06 03:25:42;;;;;;;0.40;0.40;;;;;;;9.75;88.68;99684.06;4988539;28;20122;-72
2022/11/06 03:28:10;;;;;;;0.50;0.50;;;;;;;9.74;88.83;99687.56;4987842;28;20503;-72
2022/11/06 03:30:50;;;;;;;0.40;0.40;;;;;;;9.70;88.87;99672.91;4988490;28;20085;-71
2022/11/06 03:33:20;;;;;;;0.40;0.40;;;;;;;9.73;88.92;99685.00;4988387;28;20029;-73
2022/11/06 03:35:58;;;;;;;0.40;0.40;;;;;;;9.71;88.89;99668.59;4986908;28;20042;-71
2022/11/06 03:38:32;;;;;;;0.40;0.40;;;;;;;9.73;88.45;99672.03;4988421;28;20026;-73
2022/11/06 03:41:03;;;;;;;1.02;1.02;;;;;;;9.66;88.42;99666.94;4987989;28;20041;-72
2022/11/06 03:43:34;;;;;;;0.50;0.50;;;;;;;9.71;88.35;99661.69;4988159;28;20030;-72
2022/11/06 03:46:03;;;;;;;0.50;0.50;;;;;;;9.76;88.06;99664.22;4987919;28;20760;-72
2022/11/06 03:48:39;;;;;;;0.40;0.40;;;;;;;9.79;87.62;99658.97;4970413;28;20546;-72
2022/11/06 03:51:11;;;;;;;0.60;0.60;;;;;;;9.81;87.52;99654.59;4987841;28;20030;-73
2022/11/06 03:53:55;;;;;;;0.40;0.40;;;;;;;9.77;87.50;99645.16;4987876;28;20030;-71
2022/11/06 03:56:26;;;;;;;0.40;0.40;;;;;;;9.68;87.79;99646.16;4987774;28;20267;-72
2022/11/06 03:58:54;;;;;;;4.70;4.15;;;;;;;9.74;87.52;99647.81;4987845;28;20054;-73
2022/11/06 04:01:27;;;;;;;0.60;0.60;;;;;;;9.71;87.79;99633.19;4970129;28;20027;-72
2022/11/06 04:04:01;;;;;;;0.80;0.80;;;;;;;9.76;87.33;99625.31;4987815;28;20026;-72
2022/11/06 04:06:34;;;;;;;0.40;0.40;;;;;;;9.72;87.68;99629.69;4987460;28;20031;-72
2022/11/06 04:14:36;;;;;;;0.88;0.88;;;;;;;9.79;87.89;99613.16;4987568;28;20517;-74
2022/11/06 04:17:05;;;;;;;0.40;0.40;;;;;;;9.83;87.46;99616.53;4987325;28;20089;-74
2022/11/06 04:19:31;;;;;;;0.40;0.40;;;;;;;9.81;87.91;99618.31;4987458;28;20047;-73
2022/11/06 04:22:21;;;;;;;0.40;0.40;;;;;;;9.94;87.06;99600.78;4987375;28;20037;-73
2022/11/06 04:28:06;;;;;;;0.50;0.50;;;;;;;9.84;86.99;99600.09;4987363;28;20367;-74
2022/11/06 04:30:50;;;;;;;0.40;0.40;;;;;;;9.85;87.12;99603.56;4987338;28;20031;-73
2022/11/06 04:33:33;;;;;;;0.50;0.50;;;;;;;9.83;86.94;99608.75;4987259;28;20029;-73
2022/11/06 04:36:28;;;;;;;0.40;0.40;;;;;;;9.76;86.95;99587.28;4987202;28;20030;-74
2022/11/06 04:38:57;;;;;;;0.40;0.40;;;;;;;9.76;87.22;99604.59;4987153;28;20022;-73
2022/11/06 04:41:37;;;;;;;0.40;0.40;;;;;;;9.76;87.18;99599.41;4986984;28;20058;-73
2022/11/06 04:44:16;;;;;;;0.40;0.40;;;;;;;9.70;87.35;99589.13;4986945;28;20038;-71
2022/11/06 04:46:48;;;;;;;2.20;1.05;;;;;;;9.79;86.94;99592.41;4986853;28;20034;-73
2022/11/06 04:49:14;;;;;;;0.40;0.40;;;;;;;9.79;87.07;99591.56;4986747;28;20022;-72
2022/11/06 04:51:43;;;;;;;0.50;0.50;;;;;;;9.65;87.69;99590.06;4986917;28;20034;-73
2022/11/06 04:54:09;;;;;;;0.60;0.60;;;;;;;9.62;87.84;99578.88;4986965;28;20022;-73
2022/11/06 04:56:35;;;;;;;0.40;0.40;;;;;;;9.52;87.89;99575.63;4969281;28;20434;-72
2022/11/06 04:59:03;;;;;;;0.95;0.95;;;;;;;9.40;88.31;99554.22;4987001;28;20026;-71
2022/11/06 05:01:28;;;;;;;1.35;1.35;;;;;;;9.45;88.66;99558.47;4986779;28;20037;-69
2022/11/06 05:03:53;;;;;;;0.47;0.47;;;;;;;9.31;89.36;99567.34;4986878;28;20019;-69
2022/11/06 05:06:19;;;;;;;0.75;0.75;;;;;;;9.27;89.50;99557.91;4986598;28;20107;-71
2022/11/06 05:08:45;;;;;;;0.40;0.40;;;;;;;9.25;89.55;99550.16;4969217;28;20085;-71
2022/11/06 05:11:10;;;;;;;1.38;1.27;;;;;;;9.18;89.79;99546.81;4986286;28;20105;-71
2022/11/06 05:13:37;;;;;;;0.40;0.40;;;;;;;9.25;90.08;99549.31;4985338;28;20479;-71
2022/11/06 05:16:03;;;;;;;1.05;1.05;;;;;;;9.22;89.99;99539.84;4986701;28;20034;-71
2022/11/06 05:18:28;;;;;;;0.70;0.70;;;;;;;9.13;90.68;99533.09;4986437;28;20238;-71
2022/11/06 05:22:56;;;;;;;0.40;0.40;;;;;;;9.21;90.77;99532.09;4986130;28;20051;-71
2022/11/06 05:23:40;;;;;;;0.50;0.50;;;;;;;9.16;90.79;99539.94;4986289;28;20077;-71
2022/11/06 05:26:06;;;;;;;0.50;0.50;;;;;;;9.18;91.03;99538.19;4986389;28;20429;-72
2022/11/06 05:28:32;;;;;;;0.40;0.40;;;;;;;9.22;90.54;99531.25;4986493;28;20027;-71
2022/11/06 05:30:57;;;;;;;0.50;0.50;;;;;;;9.17;90.99;99520.94;4986454;28;20027;-71
2022/11/06 05:33:23;;;;;;;0.70;0.70;;;;;;;9.11;91.41;99513.28;4986225;28;20018;-71
2022/11/06 05:35:49;;;;;;;0.40;0.40;;;;;;;9.15;91.56;99517.53;4986257;28;20070;-70
2022/11/06 05:38:14;;;;;;;0.68;0.68;;;;;;;9.25;91.14;99513.06;4986429;28;20081;-71
2022/11/06 05:40:39;;;;;;;0.40;0.40;;;;;;;9.14;91.46;99502.88;4986444;28;20027;-70
2022/11/06 05:43:05;;;;;;;0.98;0.98;;;;;;;9.26;91.37;99504.41;4986280;28;20050;-69
2022/11/06 05:45:30;;;;;;;0.40;0.40;;;;;;;9.27;91.12;99504.38;4986290;28;20035;-71
2022/11/06 05:47:55;;;;;;;0.40;0.40;;;;;;;9.23;91.44;99509.63;4986245;28;20034;-70
2022/11/06 05:50:21;;;;;;;0.40;0.40;;;;;;;9.25;91.39;99510.47;4986276;28;20050;-71
2022/11/06 05:52:46;;;;;;;0.40;0.40;;;;;;;9.11;91.75;99496.00;4986392;28;20026;-70
2022/11/06 05:55:12;;;;;;;0.60;0.60;;;;;;;9.10;91.97;99471.00;4986230;28;20034;-71
2022/11/06 05:57:37;;;;;;;0.50;0.50;;;;;;;9.20;92.00;99491.56;4986404;28;20022;-71
2022/11/06 06:00:05;;;;;;;0.40;0.40;;;;;;;9.21;91.63;99488.94;4986156;28;20386;-71
2022/11/06 06:02:30;;;;;;;0.40;0.40;;;;;;;9.17;92.11;99485.53;4986121;28;20051;-72
2022/11/06 06:04:55;;;;;;;0.95;0.95;;;;;;;9.23;92.18;99494.09;4986171;28;20101;-74
2022/11/06 06:07:21;;;;;;;0.50;0.50;;;;;;;9.20;92.11;99479.44;4986127;28;20026;-72
2022/11/06 06:09:46;;;;;;;0.82;0.82;;;;;;;9.24;92.53;99486.28;4986043;28;20114;-71
2022/11/06 06:12:13;;;;;;;0.50;0.50;;;;;;;9.21;92.28;99490.66;4986209;28;20038;-71
2022/11/06 06:14:38;;;;;;;0.40;0.40;;;;;;;9.12;92.36;99492.53;4986040;28;20106;-69
2022/11/06 06:17:04;;;;;;;0.50;0.50;;;;;;;9.09;93.31;99495.19;4985880;28;20019;-72
2022/11/06 06:19:29;;;;;;;0.50;0.50;;;;;;;9.19;93.05;99514.00;4985738;28;20099;-72
2022/11/06 06:21:55;;;;;;;0.57;0.57;;;;;;;9.13;92.56;99503.75;4986157;28;20027;-73
2022/11/06 06:24:20;;;;;;;0.40;0.40;;;;;;;9.07;93.00;99496.09;4989198;28;20463;-70
2022/11/06 06:26:45;;;;;;;0.40;0.40;;;;;;;9.05;93.52;99496.97;4989516;28;20027;-73
2022/11/06 06:29:11;;;;;;;0.40;0.40;;;;;;;9.06;93.95;99505.59;4989540;28;20033;-70
2022/11/06 06:31:36;;;;;;;0.50;0.50;;;;;;;9.06;94.04;99505.59;4988206;28;20042;-71
2022/11/06 06:34:02;;;;;;;0.40;0.40;;;;;;;9.15;94.31;99502.84;4989437;28;20122;-70
2022/11/06 06:36:27;;;;;;;0.50;0.50;;;;;;;8.98;94.75;99486.75;4989348;28;20034;-71
2022/11/06 06:38:53;;;;;;;1.35;1.30;;;;;;;9.03;95.14;99490.09;4989311;28;20489;-70
2022/11/06 06:41:19;;;;;;;0.50;0.50;;;;;;;9.03;95.78;99495.28;4989172;28;20033;-71
2022/11/06 06:43:47;;;;;;;0.40;0.40;;;;;;;9.02;95.67;99493.59;4989262;28;20046;-70
2022/11/06 06:46:12;;;;;;;6.32;3.25;;;;;;;8.99;95.49;99491.91;4989133;28;20026;-72
2022/11/06 06:48:37;;;;;;;0.50;0.50;;;;;;;9.04;95.32;99494.41;4989140;28;20030;-70
2022/11/06 06:51:03;;;;;;;0.50;0.50;;;;;;;8.92;95.69;99475.63;4988899;28;20034;-71
2022/11/06 06:53:29;;;;;;;0.60;0.60;;;;;;;8.97;95.79;99482.44;4989140;28;20050;-73
2022/11/06 06:55:58;;;;;;;0.40;0.40;;;;;;;8.92;96.58;99493.75;4989412;28;20023;-71
2022/11/06 06:58:23;;;;;;;0.50;0.50;;;;;;;8.97;96.68;99469.50;4971689;28;20023;-71
2022/11/06 07:00:49;;;;;;;1.70;1.60;;;;;;;9.04;96.46;99482.31;4989015;28;20086;-70
2022/11/06 07:03:14;;;;;;;0.50;0.50;;;;;;;9.11;96.16;99479.59;4988839;28;20034;-71
2022/11/06 07:05:39;;;;;;;0.40;0.40;;;;;;;9.07;96.94;99484.00;4971254;28;20019;-71
2022/11/06 07:08:05;;;;;;;0.40;0.40;;;;;;;8.99;97.51;99491.91;4988759;28;20030;-70
2022/11/06 07:10:30;;;;;;;0.40;0.40;;;;;;;9.14;97.13;99505.44;4988713;28;20030;-70
2022/11/06 07:13:00;;;;;;;0.40;0.40;;;;;;;9.08;97.46;99471.91;4988934;28;20027;-70
2022/11/06 07:15:25;;;;;;;0.40;0.40;;;;;;;9.09;97.75;99466.69;4988848;28;20031;-71
2022/11/06 07:17:51;;;;;;;0.40;0.40;;;;;;;9.10;98.25;99470.16;4987517;28;20026;-70
2022/11/06 07:20:16;;;;;;;0.40;0.40;;;;;;;9.08;98.55;99484.84;4988426;28;20050;-71
2022/11/06 07:22:41;;;;;;;0.40;0.40;;;;;;;9.16;98.60;99480.38;4988687;28;20033;-71
2022/11/06 07:25:07;;;;;;;0.40;0.40;;;;;;;9.14;98.69;99464.88;4988509;28;20026;-71
2022/11/06 07:27:32;;;;;;;0.50;0.50;;;;;;;9.21;98.99;99463.03;4988431;28;20030;-71
2022/11/06 07:29:59;;;;;;;0.40;0.40;;;;;;;9.20;99.09;99468.25;4971047;28;20034;-72
2022/11/06 07:32:25;;;;;;;0.40;0.40;;;;;;;9.20;99.27;99470.84;4987132;28;20018;-72
2022/11/06 07:34:50;;;;;;;0.40;0.40;;;;;;;9.23;99.67;99465.59;4987380;28;20054;-72
2022/11/06 07:37:15;;;;;;;0.40;0.40;;;;;;;9.25;100.00;99474.22;4988393;28;20509;-73
2022/11/06 07:39:40;;;;;;;0.43;0.43;;;;;;;9.33;99.72;99466.31;4988284;28;20031;-70
2022/11/06 07:42:06;;;;;;;0.60;0.60;;;;;;;9.30;100.00;99459.41;4988153;28;20031;-72
2022/11/06 07:44:31;;;;;;;0.40;0.40;;;;;;;9.30;100.00;99456.84;4988113;28;20037;-71
2022/11/06 07:46:56;;;;;;;0.40;0.40;;;;;;;9.31;100.00;99455.97;4987875;28;20050;-71
2022/11/06 07:49:22;;;;;;;0.40;0.40;;;;;;;9.35;100.00;99451.56;4988062;28;20046;-71
2022/11/06 07:51:47;;;;;;;0.40;0.40;;;;;;;9.40;100.00;99455.78;4970464;28;20030;-71
2022/11/06 07:54:12;;;;;;;0.40;0.40;;;;;;;9.43;100.00;99462.63;4987930;28;20058;-71
2022/11/06 07:56:38;;;;;;;0.43;0.43;;;;;;;9.44;100.00;99451.38;4987904;28;20022;-72
2022/11/06 07:59:04;;;;;;;0.40;0.40;;;;;;;9.45;100.00;99457.44;4987799;28;20490;-72
2022/11/06 08:01:29;;;;;;;0.40;0.40;;;;;;;9.54;100.00;99449.47;4987825;28;20062;-73
2022/11/06 08:03:55;;;;;;;0.50;0.50;;;;;;;9.61;100.00;99461.44;4970220;28;20102;-72
2022/11/06 08:06:20;;;;;;;0.40;0.40;;;;;;;9.61;100.00;99450.22;4987626;28;20026;-70
2022/11/06 08:08:46;;;;;;;26.90;2.70;;;;;;;9.64;100.00;99451.00;4987665;28;20027;-74
2022/11/06 08:11:11;;;;;;;1.25;1.25;;;;;;;9.62;100.00;99449.31;4987695;28;20048;-73
2022/11/06 08:13:37;;;;;;;0.43;0.43;;;;;;;9.70;100.00;99452.63;4987707;28;20086;-74
2022/11/06 08:16:05;;;;;;;0.40;0.40;;;;;;;9.77;100.00;99461.13;4987426;28;20099;-72
2022/11/06 08:18:31;;;;;;;0.40;0.40;;;;;;;9.84;100.00;99443.72;4987434;28;20019;-73
2022/11/06 08:20:56;;;;;;;0.70;0.70;;;;;;;9.81;100.00;99443.78;4987072;28;20402;-74
2022/11/06 08:23:22;;;;;;;0.40;0.40;;;;;;;9.79;100.00;99449.00;4987497;28;20058;-73
2022/11/06 08:25:47;;;;;;;0.40;0.40;;;;;;;9.84;100.00;99449.72;4986011;28;20027;-74
2022/11/06 08:28:12;;;;;;;0.40;0.40;;;;;;;9.83;100.00;99442.84;4987183;28;20027;-73
2022/11/06 08:30:38;;;;;;;0.40;0.40;;;;;;;9.84;100.00;99438.53;4987417;28;20054;-73
2022/11/06 08:33:06;;;;;;;0.40;0.40;;;;;;;9.90;100.00;99444.41;4986108;28;20300;-74
2022/11/06 08:35:33;;;;;;;0.40;0.40;;;;;;;9.91;100.00;99451.34;4987023;28;20022;-75
2022/11/06 08:37:59;;;;;;;0.40;0.40;;;;;;;9.95;100.00;99438.31;4985907;28;20086;-75
2022/11/06 08:40:25;;;;;;;0.40;0.40;;;;;;;9.99;100.00;99442.53;4987118;28;20027;-75
2022/11/06 08:42:50;;;;;;;0.50;0.50;;;;;;;10.01;100.00;99446.81;4987174;28;20023;-76
2022/11/06 08:45:15;;;;;;;1.83;1.67;;;;;;;10.04;100.00;99448.47;4986975;28;20423;-74
2022/11/06 08:47:41;;;;;;;1.98;1.60;;;;;;;10.03;100.00;99428.63;4986998;28;20031;-75
2022/11/06 08:50:06;;;;;;;0.40;0.40;;;;;;;10.10;100.00;99442.28;4986954;28;20541;-74
2022/11/06 08:52:32;;;;;;;0.40;0.40;;;;;;;10.09;100.00;99432.81;4987129;28;20053;-75
2022/11/06 08:54:57;;;;;;;1.20;1.10;;;;;;;10.12;100.00;99441.38;4987153;28;20037;-75
2022/11/06 08:57:22;;;;;;;0.40;0.40;;;;;;;10.14;100.00;99442.19;4969478;28;20015;-74
2022/11/06 08:59:48;;;;;;;0.40;0.40;;;;;;;10.21;100.00;99447.25;4987197;28;20041;-75
2022/11/06 09:02:14;;;;;;;0.40;0.40;;;;;;;10.20;100.00;99453.31;4969419;28;20031;-75
2022/11/06 09:04:39;;;;;;;0.40;0.40;;;;;;;10.24;100.00;99455.81;4986816;28;20037;-75
2022/11/06 09:07:05;;;;;;;0.40;0.40;;;;;;;10.29;100.00;99456.56;4986871;28;20066;-77
2022/11/06 09:09:33;;;;;;;0.40;0.40;;;;;;;10.27;100.00;99452.31;4986613;28;20234;-76
2022/11/06 09:11:59;;;;;;;0.40;0.40;;;;;;;10.32;100.00;99460.81;4986611;28;20031;-71
2022/11/06 09:14:25;;;;;;;0.40;0.40;;;;;;;10.36;100.00;99459.88;4986484;28;20031;-74
2022/11/06 09:16:51;;;;;;;0.40;0.40;;;;;;;10.45;100.00;99457.97;4986551;28;20546;-74
2022/11/06 09:19:16;;;;;;;0.40;0.40;;;;;;;10.46;100.00;99467.44;4986435;28;20022;-73
2022/11/06 09:21:42;;;;;;;0.40;0.40;;;;;;;10.46;100.00;99468.34;4986431;28;20074;-71
2022/11/06 09:24:08;;;;;;;0.98;0.98;;;;;;;10.48;100.00;99457.91;4986449;28;20047;-73
2022/11/06 09:26:33;;;;;;;0.40;0.40;;;;;;;10.46;100.00;99472.63;4985647;28;20418;-71
2022/11/06 09:28:58;;;;;;;0.40;0.40;;;;;;;10.46;100.00;99467.44;4986363;28;20034;-73
2022/11/06 09:31:24;;;;;;;0.40;0.40;;;;;;;10.48;100.00;99460.53;4986449;28;20026;-72
2022/11/06 09:33:50;;;;;;;0.47;0.47;;;;;;;10.48;100.00;99465.72;4986348;28;20386;-71
2022/11/06 09:36:16;;;;;;;0.40;0.40;;;;;;;10.51;100.00;99465.63;4986397;28;20058;-72
2022/11/06 09:38:41;;;;;;;0.40;0.40;;;;;;;10.52;100.00;99480.31;4986316;28;20031;-70
2022/11/06 09:41:20;;;;;;;0.40;0.40;;;;;;;10.53;100.00;99493.25;4986228;28;20106;-71
2022/11/06 09:43:52;;;;;;;1.05;1.05;;;;;;;10.58;100.00;99476.69;4986102;28;20037;-70
2022/11/06 09:46:25;;;;;;;0.40;0.40;;;;;;;10.53;100.00;99489.78;4986306;28;20026;-70
2022/11/06 09:49:00;;;;;;;0.40;0.40;;;;;;;10.54;100.00;99481.13;4986218;28;20022;-71
2022/11/06 09:51:40;;;;;;;0.40;0.40;;;;;;;10.60;100.00;99488.78;4986068;28;20022;-71
2022/11/06 09:54:21;;;;;;;0.40;0.40;;;;;;;10.62;100.00;99502.56;4986257;28;20027;-72
2022/11/06 09:56:49;;;;;;;0.50;0.50;;;;;;;10.63;100.00;99493.91;4968633;28;20042;-72
2022/11/06 09:59:18;;;;;;;0.50;0.50;;;;;;;10.68;100.00;99492.91;4989357;28;20026;-71
2022/11/06 10:01:54;;;;;;;0.40;0.40;;;;;;;10.71;100.00;99501.50;4989981;28;20023;-71
2022/11/06 10:04:42;;;;;;;0.40;0.40;;;;;;;10.74;100.00;99498.81;4990014;28;20042;-71
2022/11/06 10:07:29;;;;;;;0.43;0.43;;;;;;;10.77;100.00;99505.69;4989925;28;20027;-73
2022/11/06 10:09:55;;;;;;;0.40;0.40;;;;;;;10.76;100.00;99496.19;4989720;28;20146;-73
2022/11/06 10:12:41;;;;;;;0.40;0.40;;;;;;;10.83;100.00;99513.31;4989750;28;20026;-73
2022/11/06 10:15:19;;;;;;;0.40;0.40;;;;;;;10.89;100.00;99497.59;4989602;28;20054;-72
2022/11/06 10:18:22;;;;;;;0.40;0.40;;;;;;;10.96;100.00;99502.66;4989828;28;20482;-71
2022/11/06 10:20:53;;;;;;;0.40;0.40;;;;;;;10.95;100.00;99513.91;4980119;28;20061;-72
2022/11/06 10:23:33;;;;;;;0.40;0.40;;;;;;;10.92;100.00;99507.06;4989608;28;20035;-74
2022/11/06 10:26:17;;;;;;;0.40;0.40;;;;;;;10.95;100.00;99519.09;4989435;28;20027;-73
2022/11/06 10:29:17;;;;;;;0.32;0.32;;;;;;;10.96;100.00;99515.66;4989159;28;20023;-72
2022/11/06 10:31:57;;;;;;;2.28;0.98;;;;;;;10.94;100.00;99515.69;4989347;28;20045;-72
2022/11/06 10:34:45;;;;;;;0.40;0.40;;;;;;;11.01;100.00;99524.16;4989348;28;20055;-72
2022/11/06 10:37:27;;;;;;;0.68;0.68;;;;;;;11.09;100.00;99522.22;4989400;28;20027;-73
2022/11/06 10:39:55;;;;;;;0.50;0.50;;;;;;;11.08;100.00;99502.34;4989230;28;20034;-72
2022/11/06 10:42:29;;;;;;;0.30;0.30;;;;;;;11.13;100.00;99518.66;4989198;28;20027;-72
2022/11/06 10:45:13;;;;;;;0.40;0.40;;;;;;;11.22;100.00;99525.38;4989248;28;20078;-72
2022/11/06 10:47:47;;;;;;;0.50;0.50;;;;;;;11.27;100.00;99538.25;4988929;28;20041;-71
2022/11/06 10:50:15;;;;;;;0.40;0.40;;;;;;;11.27;100.00;99539.09;4988961;28;20042;-69
2022/11/06 10:52:58;;;;;;;0.40;0.40;;;;;;;11.27;100.00;99540.84;4989068;28;20023;-69
2022/11/06 10:55:38;;;;;;;0.30;0.30;;;;;;;11.30;100.00;99538.16;4988849;28;20451;-70
2022/11/06 10:58:11;;;;;;;0.40;0.40;;;;;;;11.32;100.00;99538.13;4988808;28;20105;-68
2022/11/06 11:00:37;;;;;;;0.40;0.40;;;;;;;11.27;100.00;99526.13;4988787;28;20105;-69
2022/11/06 11:03:06;;;;;;;0.40;0.40;;;;;;;11.38;100.00;99541.44;4988824;28;20062;-69
2022/11/06 11:05:42;;;;;;;0.40;0.40;;;;;;;11.39;100.00;99542.25;4988577;28;20022;-69
2022/11/06 11:08:29;;;;;;;0.40;0.40;;;;;;;11.46;100.00;99553.34;4988635;28;20411;-70
2022/11/06 11:11:05;;;;;;;0.40;0.40;;;;;;;11.46;100.00;99555.97;4987857;28;20035;-70
2022/11/06 11:13:31;;;;;;;2.10;2.00;;;;;;;11.48;100.00;99551.59;4988941;28;20100;-70
2022/11/06 11:15:57;;;;;;;0.40;0.40;;;;;;;11.52;100.00;99543.66;4987309;28;20367;-70
2022/11/06 11:18:30;;;;;;;0.40;0.40;;;;;;;11.58;100.00;99544.41;4988567;28;20037;-69
2022/11/06 11:21:15;;;;;;;0.30;0.30;;;;;;;11.63;100.00;99547.72;4987055;28;20051;-70
2022/11/06 11:23:40;;;;;;;0.40;0.40;;;;;;;11.62;100.00;99554.69;4988662;28;20018;-70
2022/11/06 11:26:37;;;;;;;0.40;0.40;;;;;;;11.65;100.00;99558.94;4988493;28;20049;-71
2022/11/06 11:29:14;;;;;;;3.33;2.83;;;;;;;11.64;100.00;99558.09;4987126;28;20156;-70
2022/11/06 11:31:44;;;;;;;0.30;0.30;;;;;;;11.68;100.00;99563.22;4988072;28;20031;-70
2022/11/06 11:34:25;;;;;;;0.40;0.40;;;;;;;11.64;100.00;99563.28;4988082;28;20606;-68
2022/11/06 11:37:04;;;;;;;0.40;0.40;;;;;;;11.67;100.00;99557.16;4987878;28;20034;-70
2022/11/06 11:39:35;;;;;;;0.40;0.40;;;;;;;11.57;99.65;99555.66;4988342;28;20031;-72
2022/11/06 11:42:30;;;;;;;0.77;0.77;;;;;;;11.60;100.00;99553.84;4970051;28;20031;-74
2022/11/06 11:45:11;;;;;;;0.40;0.40;;;;;;;11.64;99.17;99571.09;4987310;28;20260;-73
2022/11/06 11:47:39;;;;;;;0.85;0.85;;;;;;;11.55;99.00;99570.47;4986622;28;20406;-73
2022/11/06 11:50:33;;;;;;;0.40;0.40;;;;;;;11.50;98.54;99565.41;4987564;28;20038;-72
2022/11/06 11:53:05;;;;;;;0.40;0.40;;;;;;;11.50;98.36;99575.78;4969619;28;20062;-71
2022/11/06 11:55:37;;;;;;;0.32;0.32;;;;;;;11.46;98.35;99571.56;4987804;28;20042;-71
2022/11/06 11:58:02;;;;;;;1.05;1.05;;;;;;;11.37;98.05;99563.09;4987394;28;20097;-70